createdAt,value
2024-02-28T00:01:17.884Z,6.04
2024-02-28T00:03:45.523Z,6.03
2024-02-28T00:06:12.191Z,5.97
2024-02-28T00:08:38.753Z,5.92
2024-02-28T00:11:05.579Z,5.93
2024-02-28T00:13:32.179Z,5.91
2024-02-28T00:15:58.781Z,5.92
2024-02-28T00:18:25.357Z,5.90
2024-02-28T00:20:51.922Z,5.90
2024-02-28T00:23:18.442Z,5.87
2024-02-28T00:25:45.095Z,5.83
2024-02-28T00:28:11.605Z,5.78
2024-02-28T00:30:38.396Z,5.75
2024-02-28T00:33:05.131Z,5.71
2024-02-28T00:35:34.377Z,5.71
2024-02-28T00:38:01.751Z,5.73
2024-02-28T00:40:29.488Z,5.73
2024-02-28T00:42:56.372Z,5.72
2024-02-28T00:45:22.882Z,5.73
2024-02-28T00:47:49.492Z,5.69
2024-02-28T00:50:16.179Z,5.69
2024-02-28T00:52:42.716Z,5.70
2024-02-28T00:55:09.275Z,5.71
2024-02-28T00:57:36.477Z,5.68
2024-02-28T01:00:03.208Z,5.66
2024-02-28T01:02:29.741Z,5.64
2024-02-28T01:04:56.235Z,5.62
2024-02-28T01:07:22.748Z,5.60
2024-02-28T01:09:49.357Z,5.64
2024-02-28T01:12:15.953Z,5.65
2024-02-28T01:14:42.528Z,5.65
2024-02-28T01:17:09.051Z,5.67
2024-02-28T01:19:36.072Z,5.64
2024-02-28T01:22:02.774Z,5.67
2024-02-28T01:24:29.304Z,5.68
2024-02-28T01:26:56.033Z,5.65
2024-02-28T01:29:22.713Z,5.64
2024-02-28T01:31:49.214Z,5.61
2024-02-28T01:34:15.770Z,5.61
2024-02-28T01:36:42.374Z,5.62
2024-02-28T01:39:09.444Z,5.64
2024-02-28T01:41:36.068Z,5.65
2024-02-28T01:44:02.730Z,5.67
2024-02-28T01:46:30.309Z,5.67
2024-02-28T01:48:58.279Z,5.63
2024-02-28T01:51:28.175Z,5.62
2024-02-28T01:53:55.326Z,5.61
2024-02-28T01:56:24.171Z,5.63
2024-02-28T01:58:51.172Z,5.64
2024-02-28T02:01:18.646Z,5.62
2024-02-28T02:03:51.316Z,5.62
2024-02-28T02:06:17.981Z,5.62
2024-02-28T02:08:44.797Z,5.63
2024-02-28T02:11:11.358Z,5.60
2024-02-28T02:13:56.965Z,5.58
2024-02-28T02:16:23.774Z,5.57
2024-02-28T02:18:50.621Z,5.55
2024-02-28T02:21:21.112Z,5.54
2024-02-28T02:23:47.698Z,5.56
2024-02-28T02:26:14.235Z,5.56
2024-02-28T02:28:40.921Z,5.56
2024-02-28T02:31:07.467Z,5.59
2024-02-28T02:33:34.174Z,5.60
2024-02-28T02:36:00.723Z,5.59
2024-02-28T02:38:27.252Z,5.60
2024-02-28T02:40:54.013Z,5.61
2024-02-28T02:43:20.561Z,5.62
2024-02-28T02:45:47.182Z,5.62
2024-02-28T02:48:13.693Z,5.61
2024-02-28T02:50:40.392Z,5.58
2024-02-28T02:53:10.802Z,5.57
2024-02-28T02:55:37.622Z,5.53
2024-02-28T02:58:04.394Z,5.52
2024-02-28T03:00:31.000Z,5.53
2024-02-28T03:02:57.596Z,5.52
2024-02-28T03:05:24.144Z,5.56
2024-02-28T03:07:50.672Z,5.57
2024-02-28T03:10:17.310Z,5.60
2024-02-28T03:12:43.991Z,5.64
2024-02-28T03:15:10.609Z,5.70
2024-02-28T03:17:37.172Z,5.68
2024-02-28T03:20:04.396Z,5.69
2024-02-28T03:22:30.883Z,5.68
2024-02-28T03:24:57.518Z,5.70
2024-02-28T03:27:24.071Z,5.72
2024-02-28T03:29:50.725Z,5.70
2024-02-28T03:32:17.210Z,5.70
2024-02-28T03:34:43.758Z,5.70
2024-02-28T03:37:10.258Z,5.68
2024-02-28T03:39:36.842Z,5.67
2024-02-28T03:42:03.541Z,5.65
2024-02-28T03:44:30.062Z,5.67
2024-02-28T03:46:56.646Z,5.68
2024-02-28T03:49:23.189Z,5.69
2024-02-28T03:51:49.759Z,5.73
2024-02-28T03:54:16.442Z,5.75
2024-02-28T03:56:43.037Z,5.76
2024-02-28T03:59:09.939Z,5.78
2024-02-28T04:01:36.532Z,5.74
2024-02-28T04:04:03.514Z,5.75
2024-02-28T04:06:30.410Z,5.74
2024-02-28T04:08:57.028Z,5.75
2024-02-28T04:11:23.627Z,5.75
2024-02-28T04:13:50.208Z,5.75
2024-02-28T04:16:16.742Z,5.75
2024-02-28T04:18:44.289Z,5.76
2024-02-28T04:21:10.875Z,5.75
2024-02-28T04:23:39.092Z,5.73
2024-02-28T04:26:05.625Z,5.71
2024-02-28T04:28:32.176Z,5.65
2024-02-28T04:30:58.801Z,5.66
2024-02-28T04:33:25.422Z,5.67
2024-02-28T04:35:51.963Z,5.67
2024-02-28T04:38:18.490Z,5.68
2024-02-28T04:40:45.257Z,5.70
2024-02-28T04:43:11.810Z,5.70
2024-02-28T04:45:38.595Z,5.66
2024-02-28T04:48:06.125Z,5.70
2024-02-28T04:50:32.840Z,5.70
2024-02-28T04:52:59.323Z,5.73
2024-02-28T04:55:25.905Z,5.73
2024-02-28T04:57:52.656Z,5.74
2024-02-28T05:00:19.460Z,5.73
2024-02-28T05:02:46.018Z,5.72
2024-02-28T05:05:12.546Z,5.71
2024-02-28T05:07:39.115Z,5.70
2024-02-28T05:10:06.495Z,5.70
2024-02-28T05:12:33.201Z,5.67
2024-02-28T05:14:59.810Z,5.69
2024-02-28T05:17:26.385Z,5.71
2024-02-28T05:19:53.026Z,5.67
2024-02-28T05:22:19.542Z,5.65
2024-02-28T05:24:49.393Z,5.68
2024-02-28T05:27:16.093Z,5.70
2024-02-28T05:29:43.838Z,5.69
2024-02-28T05:32:10.701Z,5.70
2024-02-28T05:34:37.260Z,5.71
2024-02-28T05:37:03.957Z,5.74
2024-02-28T05:39:31.962Z,5.75
2024-02-28T05:41:58.635Z,5.74
2024-02-28T05:44:25.733Z,5.74
2024-02-28T05:46:52.305Z,5.76
2024-02-28T05:49:18.954Z,5.79
2024-02-28T05:51:45.692Z,5.79
2024-02-28T05:54:12.369Z,5.80
2024-02-28T05:56:38.934Z,5.82
2024-02-28T05:59:05.493Z,5.86
2024-02-28T06:01:32.146Z,5.84
2024-02-28T06:03:59.416Z,5.87
2024-02-28T06:06:27.068Z,5.85
2024-02-28T06:08:53.707Z,5.85
2024-02-28T06:11:20.325Z,5.82
2024-02-28T06:13:46.930Z,5.83
2024-02-28T06:16:17.337Z,5.83
2024-02-28T06:18:43.930Z,5.84
2024-02-28T06:21:10.642Z,5.85
2024-02-28T06:23:37.364Z,5.87
2024-02-28T06:26:04.073Z,5.89
2024-02-28T06:28:30.707Z,5.89
2024-02-28T06:30:57.402Z,5.91
2024-02-28T06:33:24.119Z,5.92
2024-02-28T06:35:50.709Z,5.93
2024-02-28T06:38:17.252Z,5.93
2024-02-28T06:40:43.814Z,5.89
2024-02-28T06:43:10.626Z,5.90
2024-02-28T06:45:38.050Z,5.89
2024-02-28T06:48:06.152Z,5.89
2024-02-28T06:50:32.687Z,5.91
2024-02-28T06:52:59.230Z,5.84
2024-02-28T06:55:26.109Z,5.82
2024-02-28T06:57:52.840Z,5.84
2024-02-28T07:00:20.357Z,5.86
2024-02-28T07:02:47.079Z,5.88
2024-02-28T07:05:14.055Z,5.86
2024-02-28T07:07:40.953Z,5.87
2024-02-28T07:10:07.989Z,5.87
2024-02-28T07:12:34.667Z,5.90
2024-02-28T07:15:01.249Z,5.90
2024-02-28T07:17:27.835Z,5.91
2024-02-28T07:19:54.504Z,5.89
2024-02-28T07:22:22.369Z,5.96
2024-02-28T07:24:49.320Z,5.98
2024-02-28T07:27:16.950Z,6.01
2024-02-28T07:29:43.665Z,6.02
2024-02-28T07:32:10.226Z,5.99
2024-02-28T07:34:36.703Z,6.00
2024-02-28T07:37:03.614Z,6.03
2024-02-28T07:39:30.232Z,6.02
2024-02-28T07:41:57.139Z,6.02
2024-02-28T07:44:24.093Z,6.04
2024-02-28T07:46:52.317Z,6.06
2024-02-28T07:49:19.785Z,6.07
2024-02-28T07:51:46.770Z,6.12
2024-02-28T07:54:13.637Z,6.13
2024-02-28T07:56:40.190Z,6.14
2024-02-28T07:59:06.736Z,6.17
2024-02-28T08:01:33.573Z,6.21
2024-02-28T08:04:01.068Z,6.24
2024-02-28T08:06:27.869Z,6.26
2024-02-28T08:08:54.615Z,6.28
2024-02-28T08:11:21.423Z,6.27
2024-02-28T08:13:48.111Z,6.24
2024-02-28T08:16:14.861Z,6.24
2024-02-28T08:18:41.842Z,6.26
2024-02-28T08:21:10.145Z,6.28
2024-02-28T08:23:36.816Z,6.28
2024-02-28T08:26:04.938Z,6.29
2024-02-28T08:28:31.447Z,6.32
2024-02-28T08:30:59.611Z,6.32
2024-02-28T08:33:26.415Z,6.31
2024-02-28T08:35:53.279Z,6.34
2024-02-28T08:38:19.818Z,6.34
2024-02-28T08:40:46.825Z,6.35
2024-02-28T08:43:13.731Z,6.35
2024-02-28T08:45:40.686Z,6.36
2024-02-28T08:48:08.514Z,6.35
2024-02-28T08:50:35.319Z,6.39
2024-02-28T08:53:02.962Z,6.41
2024-02-28T08:55:30.307Z,6.42
2024-02-28T08:57:56.977Z,6.43
2024-02-28T09:00:23.839Z,6.49
2024-02-28T09:02:50.563Z,6.54
2024-02-28T09:05:17.391Z,6.60
2024-02-28T09:07:44.225Z,6.65
2024-02-28T09:10:12.194Z,6.62
2024-02-28T09:12:39.270Z,6.65
2024-02-28T09:15:06.449Z,6.68
2024-02-28T09:17:33.063Z,6.68
2024-02-28T09:20:02.064Z,6.74
2024-02-28T09:22:28.872Z,6.78
2024-02-28T09:24:55.633Z,6.82
2024-02-28T09:27:22.296Z,6.83
2024-02-28T09:29:48.828Z,6.86
2024-02-28T09:32:15.935Z,6.87
2024-02-28T09:34:42.884Z,6.87
2024-02-28T09:37:09.644Z,6.84
2024-02-28T09:39:39.823Z,6.86
2024-02-28T09:42:08.064Z,6.91
2024-02-28T09:44:35.779Z,6.91
2024-02-28T09:47:02.551Z,6.82
2024-02-28T09:49:32.150Z,6.79
2024-02-28T09:51:59.889Z,6.79
2024-02-28T09:54:26.877Z,6.80
2024-02-28T09:56:53.665Z,6.80
2024-02-28T09:59:23.332Z,6.82
2024-02-28T10:01:58.904Z,6.76
2024-02-28T10:04:29.048Z,6.79
2024-02-28T10:06:55.740Z,6.81
2024-02-28T10:09:22.369Z,6.83
2024-02-28T10:11:49.229Z,6.89
2024-02-28T10:14:20.094Z,6.93
2024-02-28T10:16:46.757Z,6.95
2024-02-28T10:19:14.060Z,6.96
2024-02-28T10:21:40.905Z,6.98
2024-02-28T10:24:07.763Z,6.99
2024-02-28T10:26:43.140Z,7.00
2024-02-28T10:29:12.271Z,6.96
2024-02-28T10:31:39.025Z,6.98
2024-02-28T10:34:06.287Z,6.96
2024-02-28T10:36:33.921Z,6.97
2024-02-28T10:39:01.341Z,6.97
2024-02-28T10:41:29.413Z,7.00
2024-02-28T10:43:56.015Z,6.99
2024-02-28T10:46:35.187Z,7.00
2024-02-28T10:49:03.975Z,7.06
2024-02-28T10:51:36.844Z,7.16
2024-02-28T10:54:13.860Z,7.24
2024-02-28T10:56:43.039Z,7.31
2024-02-28T10:59:12.398Z,7.40
2024-02-28T11:01:45.460Z,7.43
2024-02-28T11:04:14.278Z,7.54
2024-02-28T11:06:52.323Z,7.65
2024-02-28T11:09:23.733Z,7.76
2024-02-28T11:11:54.131Z,7.75
2024-02-28T11:14:23.504Z,7.81
2024-02-28T11:17:01.309Z,7.89
2024-02-28T11:19:30.675Z,7.90
2024-02-28T11:21:58.337Z,7.96
2024-02-28T11:24:29.904Z,8.03
2024-02-28T11:26:56.460Z,8.07
2024-02-28T11:29:28.413Z,8.08
2024-02-28T11:31:55.283Z,8.04
2024-02-28T11:34:22.565Z,8.09
2024-02-28T11:36:54.279Z,8.13
2024-02-28T11:39:22.423Z,8.15
2024-02-28T11:41:49.886Z,8.17
2024-02-28T11:44:17.828Z,8.23
2024-02-28T11:46:48.452Z,8.31
2024-02-28T11:49:15.479Z,8.39
2024-02-28T11:51:43.679Z,8.46
2024-02-28T11:54:14.033Z,8.46
2024-02-28T11:56:41.423Z,8.45
2024-02-28T11:59:10.388Z,8.40
2024-02-28T12:01:43.220Z,8.39
2024-02-28T12:04:11.424Z,8.39
2024-02-28T12:06:39.282Z,8.36
2024-02-28T12:09:10.172Z,8.36
2024-02-28T12:11:38.422Z,8.35
2024-02-28T12:14:08.076Z,8.36
2024-02-28T12:16:34.631Z,8.41
2024-02-28T12:19:01.398Z,8.31
2024-02-28T12:21:28.483Z,8.37
2024-02-28T12:23:57.303Z,8.31
2024-02-28T12:26:23.862Z,8.30
2024-02-28T12:28:50.365Z,8.27
2024-02-28T12:31:17.033Z,8.28
2024-02-28T12:33:43.764Z,8.29
2024-02-28T12:36:10.480Z,8.32
2024-02-28T12:38:37.254Z,8.36
2024-02-28T12:41:04.925Z,8.42
2024-02-28T12:43:33.005Z,8.33
2024-02-28T12:46:00.341Z,8.37
2024-02-28T12:48:27.023Z,8.42
2024-02-28T12:50:53.668Z,8.45
2024-02-28T12:53:20.192Z,8.49
2024-02-28T12:55:46.696Z,8.50
2024-02-28T12:58:13.275Z,8.59
2024-02-28T13:00:39.925Z,8.60
2024-02-28T13:03:07.275Z,8.63
2024-02-28T13:05:33.942Z,8.68
2024-02-28T13:08:00.613Z,8.66
2024-02-28T13:10:27.306Z,8.65
2024-02-28T13:12:54.225Z,8.62
2024-02-28T13:15:21.043Z,8.61
2024-02-28T13:17:50.864Z,8.62
2024-02-28T13:20:18.001Z,8.63
2024-02-28T13:22:45.121Z,8.60
2024-02-28T13:25:13.160Z,8.56
2024-02-28T13:27:39.869Z,8.51
2024-02-28T13:30:07.149Z,8.50
2024-02-28T13:32:34.072Z,8.52
2024-02-28T13:35:01.364Z,8.55
2024-02-28T13:37:28.105Z,8.51
2024-02-28T13:39:54.694Z,8.55
2024-02-28T13:42:21.374Z,8.61
2024-02-28T13:44:47.951Z,8.60
2024-02-28T13:47:15.388Z,8.62
2024-02-28T13:49:42.020Z,8.61
2024-02-28T13:52:08.942Z,8.60
2024-02-28T13:54:36.385Z,8.48
2024-02-28T13:57:03.129Z,8.47
2024-02-28T13:59:29.646Z,8.47
2024-02-28T14:01:56.717Z,8.54
2024-02-28T14:04:23.371Z,8.56
2024-02-28T14:06:50.479Z,8.57
2024-02-28T14:09:17.632Z,8.50
2024-02-28T14:11:45.209Z,8.48
2024-02-28T14:14:13.464Z,8.41
2024-02-28T14:16:40.034Z,8.43
2024-02-28T14:19:06.634Z,8.54
2024-02-28T14:21:34.333Z,8.47
2024-02-28T14:24:01.016Z,8.47
2024-02-28T14:26:28.118Z,8.47
2024-02-28T14:28:56.279Z,8.46
2024-02-28T14:31:24.455Z,8.36
2024-02-28T14:33:51.366Z,8.40
2024-02-28T14:36:18.115Z,8.44
2024-02-28T14:38:45.505Z,8.44
2024-02-28T14:41:12.835Z,8.55
2024-02-28T14:43:40.116Z,8.52
2024-02-28T14:46:08.424Z,8.52
2024-02-28T14:48:35.161Z,8.54
2024-02-28T14:51:03.504Z,8.53
2024-02-28T14:53:30.102Z,8.56
2024-02-28T14:55:56.700Z,8.58
2024-02-28T14:58:23.272Z,8.63
2024-02-28T15:00:50.598Z,8.69
2024-02-28T15:03:17.687Z,8.69
2024-02-28T15:05:45.103Z,8.71
2024-02-28T15:08:12.236Z,8.73
2024-02-28T15:10:38.893Z,8.78
2024-02-28T15:13:07.318Z,8.75
2024-02-28T15:15:33.997Z,8.69
2024-02-28T15:18:01.898Z,8.55
2024-02-28T15:20:28.464Z,8.53
2024-02-28T15:22:56.241Z,8.59
2024-02-28T15:25:22.890Z,8.61
2024-02-28T15:27:49.443Z,8.64
2024-02-28T15:30:16.080Z,8.64
2024-02-28T15:32:43.497Z,8.65
2024-02-28T15:35:11.646Z,8.66
2024-02-28T15:37:38.468Z,8.62
2024-02-28T15:40:09.552Z,8.64
2024-02-28T15:42:36.838Z,8.59
2024-02-28T15:45:03.601Z,8.54
2024-02-28T15:47:33.501Z,8.53
2024-02-28T15:50:00.953Z,8.52
2024-02-28T15:52:28.670Z,8.58
2024-02-28T15:54:55.359Z,8.61
2024-02-28T15:57:21.971Z,8.55
2024-02-28T15:59:48.569Z,8.56
2024-02-28T16:02:15.256Z,8.55
2024-02-28T16:04:41.840Z,8.55
2024-02-28T16:07:10.229Z,8.57
2024-02-28T16:09:40.127Z,8.48
2024-02-28T16:12:10.538Z,8.50
2024-02-28T16:14:37.106Z,8.55
2024-02-28T16:17:03.759Z,8.56
2024-02-28T16:19:30.431Z,8.58
2024-02-28T16:21:57.278Z,8.55
2024-02-28T16:24:24.128Z,8.59
2024-02-28T16:26:50.908Z,8.53
2024-02-28T16:29:17.495Z,8.53
2024-02-28T16:31:49.411Z,8.54
2024-02-28T16:34:16.162Z,8.51
2024-02-28T16:36:43.047Z,8.55
2024-02-28T16:39:09.682Z,8.55
2024-02-28T16:41:36.483Z,8.52
2024-02-28T16:44:04.558Z,8.50
2024-02-28T16:46:31.308Z,8.49
2024-02-28T16:48:57.966Z,8.50
2024-02-28T16:51:24.696Z,8.50
2024-02-28T16:53:51.327Z,8.53
2024-02-28T16:56:17.843Z,8.50
2024-02-28T16:58:44.481Z,8.45
2024-02-28T17:01:11.385Z,8.47
2024-02-28T17:03:38.456Z,8.47
2024-02-28T17:06:06.033Z,8.48
2024-02-28T17:08:36.095Z,8.46
2024-02-28T17:11:04.409Z,8.50
2024-02-28T17:13:31.007Z,8.46
2024-02-28T17:16:03.396Z,8.45
2024-02-28T17:18:31.537Z,8.48
2024-02-28T17:20:58.721Z,8.48
2024-02-28T17:23:26.605Z,8.42
2024-02-28T17:25:56.431Z,8.48
2024-02-28T17:28:23.346Z,8.50
2024-02-28T17:30:49.910Z,8.48
2024-02-28T17:33:16.650Z,8.47
2024-02-28T17:35:44.963Z,8.49
2024-02-28T17:38:11.613Z,8.41
2024-02-28T17:40:38.229Z,8.44
2024-02-28T17:43:05.440Z,8.45
2024-02-28T17:45:32.151Z,8.48
2024-02-28T17:47:58.884Z,8.48
2024-02-28T17:50:26.113Z,8.45
2024-02-28T17:52:52.873Z,8.44
2024-02-28T17:55:19.631Z,8.38
2024-02-28T17:57:47.370Z,8.36
2024-02-28T18:00:14.497Z,8.41
2024-02-28T18:02:42.336Z,8.33
2024-02-28T18:05:10.268Z,8.33
2024-02-28T18:07:37.150Z,8.28
2024-02-28T18:10:07.995Z,8.24
2024-02-28T18:12:34.823Z,8.26
2024-02-28T18:15:01.524Z,8.26
2024-02-28T18:17:29.395Z,8.23
2024-02-28T18:19:56.289Z,8.19
2024-02-28T18:22:22.817Z,8.25
2024-02-28T18:24:49.522Z,8.27
2024-02-28T18:27:16.199Z,8.26
2024-02-28T18:29:43.042Z,8.28
2024-02-28T18:32:09.645Z,8.34
2024-02-28T18:34:36.293Z,8.29
2024-02-28T18:37:03.202Z,8.34
2024-02-28T18:39:29.915Z,8.37
2024-02-28T18:41:56.863Z,8.36
2024-02-28T18:44:23.450Z,8.26
2024-02-28T18:46:49.970Z,8.29
2024-02-28T18:49:16.939Z,8.28
2024-02-28T18:51:43.858Z,8.32
2024-02-28T18:54:10.432Z,8.35
2024-02-28T18:56:37.003Z,8.39
2024-02-28T18:59:03.604Z,8.35
2024-02-28T19:01:30.271Z,8.35
2024-02-28T19:03:57.531Z,8.35
2024-02-28T19:06:25.640Z,8.36
2024-02-28T19:08:53.626Z,8.37
2024-02-28T19:11:20.882Z,8.36
2024-02-28T19:13:47.675Z,8.30
2024-02-28T19:16:14.958Z,8.33
2024-02-28T19:18:42.878Z,8.31
2024-02-28T19:21:09.546Z,8.33
2024-02-28T19:23:38.051Z,8.33
2024-02-28T19:26:04.880Z,8.30
2024-02-28T19:28:31.405Z,8.31
2024-02-28T19:31:01.168Z,8.34
2024-02-28T19:33:28.168Z,8.33
2024-02-28T19:35:54.875Z,8.35
2024-02-28T19:38:21.474Z,8.38
2024-02-28T19:40:48.016Z,8.36
2024-02-28T19:43:15.809Z,8.35
2024-02-28T19:45:42.822Z,8.30
2024-02-28T19:48:09.605Z,8.33
2024-02-28T19:50:36.399Z,8.32
2024-02-28T19:53:03.292Z,8.37
2024-02-28T19:55:29.830Z,8.39
2024-02-28T19:57:56.414Z,8.42
2024-02-28T20:00:23.106Z,8.41
2024-02-28T20:02:49.737Z,8.42
2024-02-28T20:05:19.555Z,8.44
2024-02-28T20:07:47.863Z,8.45
2024-02-28T20:10:16.349Z,8.44
2024-02-28T20:12:43.159Z,8.46
2024-02-28T20:15:10.058Z,8.47
2024-02-28T20:17:36.802Z,8.49
2024-02-28T20:20:04.544Z,8.47
2024-02-28T20:22:31.027Z,8.50
2024-02-28T20:24:57.898Z,8.42
2024-02-28T20:27:24.605Z,8.45
2024-02-28T20:29:51.237Z,8.42
2024-02-28T20:32:19.349Z,8.48
2024-02-28T20:34:45.987Z,8.51
2024-02-28T20:37:12.685Z,8.52
2024-02-28T20:39:40.394Z,8.48
2024-02-28T20:42:07.250Z,8.48
2024-02-28T20:44:33.906Z,8.46
2024-02-28T20:47:00.483Z,8.44
2024-02-28T20:49:27.118Z,8.40
2024-02-28T20:51:53.733Z,8.34
2024-02-28T20:54:20.445Z,8.35
2024-02-28T20:56:48.061Z,8.31
2024-02-28T20:59:15.576Z,8.30
2024-02-28T21:01:42.298Z,8.36
2024-02-28T21:04:09.663Z,8.33
2024-02-28T21:06:36.563Z,8.28
2024-02-28T21:09:03.718Z,8.25
2024-02-28T21:11:30.442Z,8.22
2024-02-28T21:13:57.682Z,8.15
2024-02-28T21:16:24.813Z,8.07
2024-02-28T21:18:52.332Z,8.08
2024-02-28T21:21:23.475Z,8.11
2024-02-28T21:23:50.156Z,8.10
2024-02-28T21:26:16.850Z,8.06
2024-02-28T21:28:43.608Z,8.07
2024-02-28T21:31:10.265Z,8.08
2024-02-28T21:33:37.081Z,8.11
2024-02-28T21:36:03.872Z,8.11
2024-02-28T21:38:30.720Z,8.11
2024-02-28T21:40:57.458Z,8.10
2024-02-28T21:43:24.174Z,8.07
2024-02-28T21:45:50.947Z,8.02
2024-02-28T21:48:17.574Z,7.99
2024-02-28T21:50:44.230Z,7.97
2024-02-28T21:53:11.102Z,8.00
2024-02-28T21:55:37.799Z,8.02
2024-02-28T21:58:05.048Z,7.93
2024-02-28T22:00:32.130Z,7.95
2024-02-28T22:02:58.788Z,7.97
2024-02-28T22:05:25.357Z,7.98
2024-02-28T22:07:51.987Z,7.99
2024-02-28T22:10:18.681Z,7.98
2024-02-28T22:12:45.495Z,7.95
2024-02-28T22:15:12.322Z,7.88
2024-02-28T22:17:39.083Z,7.90
2024-02-28T22:20:06.936Z,7.90
2024-02-28T22:22:33.555Z,7.90
2024-02-28T22:25:00.234Z,7.90
2024-02-28T22:27:27.211Z,7.88
2024-02-28T22:29:54.746Z,7.81
2024-02-28T22:32:22.196Z,7.77
2024-02-28T22:34:48.823Z,7.76
2024-02-28T22:37:15.551Z,7.73
2024-02-28T22:39:42.305Z,7.67
2024-02-28T22:42:08.900Z,7.67
2024-02-28T22:44:35.449Z,7.66
2024-02-28T22:47:01.959Z,7.66
2024-02-28T22:49:29.172Z,7.67
2024-02-28T22:51:55.802Z,7.60
2024-02-28T22:54:24.074Z,7.62
2024-02-28T22:56:50.873Z,7.64
2024-02-28T22:59:18.404Z,7.59
2024-02-28T23:01:46.299Z,7.59
2024-02-28T23:04:13.183Z,7.58
2024-02-28T23:06:41.026Z,7.59
2024-02-28T23:09:07.735Z,7.58
2024-02-28T23:11:34.910Z,7.60
2024-02-28T23:14:02.224Z,7.56
2024-02-28T23:16:29.935Z,7.55
2024-02-28T23:18:56.921Z,7.60
2024-02-28T23:21:23.876Z,7.60
2024-02-28T23:23:50.496Z,7.59
2024-02-28T23:26:17.130Z,7.62
2024-02-28T23:28:44.097Z,7.65
2024-02-28T23:31:10.710Z,7.65
2024-02-28T23:33:37.532Z,7.63
2024-02-28T23:36:04.780Z,7.66
2024-02-28T23:38:31.491Z,7.68
2024-02-28T23:40:58.011Z,7.72
2024-02-28T23:43:25.458Z,7.64
2024-02-28T23:45:52.048Z,7.58
2024-02-28T23:48:18.600Z,7.65
2024-02-28T23:50:52.916Z,7.64
2024-02-28T23:53:20.380Z,7.56
2024-02-28T23:55:47.073Z,7.52
2024-02-28T23:58:13.972Z,7.56
